< < Back
Terminal Aerodrome Forecast


Current Version              Previous Versions:   1  2  3  4  5  6  7  8  9  

Terminal Aerodrome Forecast

171
FTUS42 KFFC 301728
TAFFTY
TAF
KFTY 301728Z 3018/0118 24010G15KT P6SM VCSH BKN050
      TEMPO 3019/3023 VRB15G25KT 4SM TSRA BKN035CB
     FM010000 27008KT P6SM BKN060
     FM010600 26006KT P6SM SCT015 SCT060
     FM011400 27008KT P6SM SCT060=



Latest METAR

015
SAUS70 KWBC 302100 RRG
MTRFTY
METAR KFTY 302053Z 24009KT 10SM FEW110 30/16 A2996 RMK AO2 SLP133
T03000161 56010


USA.gov is the U.S. government's official web portal to all federal, state and local government web resources and services.